sensor_id;sensor_type;location;lat;lon;timestamp;temperature;humidity
43015;DHT22;28637;50.554;7.032;2022-10-16T00:04:37;14.00;99.90
43015;DHT22;28637;50.554;7.032;2022-10-16T00:09:38;14.10;99.90
43015;DHT22;28637;50.554;7.032;2022-10-16T00:14:38;14.10;99.90
43015;DHT22;28637;50.554;7.032;2022-10-16T00:19:42;14.20;99.90
43015;DHT22;28637;50.554;7.032;2022-10-16T00:24:42;14.20;99.90
43015;DHT22;28637;50.554;7.032;2022-10-16T00:29:43;14.20;99.90
43015;DHT22;28637;50.554;7.032;2022-10-16T00:34:44;14.20;99.90
43015;DHT22;28637;50.554;7.032;2022-10-16T00:39:44;14.00;99.90
43015;DHT22;28637;50.554;7.032;2022-10-16T00:44:54;13.90;99.90
43015;DHT22;28637;50.554;7.032;2022-10-16T00:50:04;13.80;99.90
43015;DHT22;28637;50.554;7.032;2022-10-16T00:55:07;13.90;99.90
43015;DHT22;28637;50.554;7.032;2022-10-16T01:00:10;14.00;99.90
43015;DHT22;28637;50.554;7.032;2022-10-16T01:05:11;14.10;99.90
43015;DHT22;28637;50.554;7.032;2022-10-16T01:10:30;14.10;99.90
43015;DHT22;28637;50.554;7.032;2022-10-16T01:15:35;14.10;99.90
43015;DHT22;28637;50.554;7.032;2022-10-16T01:20:45;14.20;99.90
43015;DHT22;28637;50.554;7.032;2022-10-16T01:31:32;14.20;99.90
43015;DHT22;28637;50.554;7.032;2022-10-16T01:36:38;14.10;99.90
43015;DHT22;28637;50.554;7.032;2022-10-16T01:41:51;14.00;99.90
43015;DHT22;28637;50.554;7.032;2022-10-16T01:46:53;13.90;99.90
43015;DHT22;28637;50.554;7.032;2022-10-16T01:51:56;13.60;99.90
43015;DHT22;28637;50.554;7.032;2022-10-16T01:56:59;13.50;99.90
43015;DHT22;28637;50.554;7.032;2022-10-16T02:02:05;13.40;99.90
43015;DHT22;28637;50.554;7.032;2022-10-16T02:07:08;13.50;99.90
43015;DHT22;28637;50.554;7.032;2022-10-16T02:12:32;13.60;99.90
43015;DHT22;28637;50.554;7.032;2022-10-16T02:17:33;13.70;99.90
43015;DHT22;28637;50.554;7.032;2022-10-16T02:22:38;13.80;99.90
43015;DHT22;28637;50.554;7.032;2022-10-16T02:27:53;13.80;99.90
43015;DHT22;28637;50.554;7.032;2022-10-16T02:32:56;13.90;99.90
43015;DHT22;28637;50.554;7.032;2022-10-16T02:37:58;13.90;99.90
43015;DHT22;28637;50.554;7.032;2022-10-16T02:42:59;14.00;99.90
43015;DHT22;28637;50.554;7.032;2022-10-16T02:48:00;14.00;99.90
43015;DHT22;28637;50.554;7.032;2022-10-16T02:53:01;14.10;99.90
43015;DHT22;28637;50.554;7.032;2022-10-16T02:58:01;14.00;99.90
43015;DHT22;28637;50.554;7.032;2022-10-16T03:03:02;14.00;99.90
43015;DHT22;28637;50.554;7.032;2022-10-16T03:08:03;14.00;99.90
43015;DHT22;28637;50.554;7.032;2022-10-16T03:13:04;14.00;99.90
43015;DHT22;28637;50.554;7.032;2022-10-16T03:18:05;14.00;99.90
43015;DHT22;28637;50.554;7.032;2022-10-16T03:23:06;14.10;99.90
43015;DHT22;28637;50.554;7.032;2022-10-16T03:28:08;14.10;99.90
43015;DHT22;28637;50.554;7.032;2022-10-16T03:33:09;14.00;99.90
43015;DHT22;28637;50.554;7.032;2022-10-16T03:38:10;14.10;99.90
43015;DHT22;28637;50.554;7.032;2022-10-16T03:43:10;14.00;99.90
43015;DHT22;28637;50.554;7.032;2022-10-16T03:48:11;14.00;99.90
43015;DHT22;28637;50.554;7.032;2022-10-16T03:53:12;14.00;99.90
43015;DHT22;28637;50.554;7.032;2022-10-16T03:58:12;14.00;99.90
43015;DHT22;28637;50.554;7.032;2022-10-16T04:03:13;14.10;99.90
43015;DHT22;28637;50.554;7.032;2022-10-16T04:08:14;14.10;99.90
43015;DHT22;28637;50.554;7.032;2022-10-16T04:13:15;14.10;99.90
43015;DHT22;28637;50.554;7.032;2022-10-16T04:18:15;14.10;99.90
43015;DHT22;28637;50.554;7.032;2022-10-16T04:23:16;14.20;99.90
43015;DHT22;28637;50.554;7.032;2022-10-16T04:28:17;14.20;99.90
43015;DHT22;28637;50.554;7.032;2022-10-16T04:33:17;14.20;99.90
43015;DHT22;28637;50.554;7.032;2022-10-16T04:38:18;14.20;99.90
43015;DHT22;28637;50.554;7.032;2022-10-16T04:43:19;14.20;99.90
43015;DHT22;28637;50.554;7.032;2022-10-16T04:48:20;14.20;99.90
43015;DHT22;28637;50.554;7.032;2022-10-16T04:53:21;14.20;99.90
43015;DHT22;28637;50.554;7.032;2022-10-16T04:58:21;14.20;99.90
43015;DHT22;28637;50.554;7.032;2022-10-16T05:03:22;14.20;99.90
43015;DHT22;28637;50.554;7.032;2022-10-16T05:08:23;14.30;99.90
43015;DHT22;28637;50.554;7.032;2022-10-16T05:13:24;14.30;99.90
43015;DHT22;28637;50.554;7.032;2022-10-16T05:18:25;14.40;99.90
43015;DHT22;28637;50.554;7.032;2022-10-16T05:23:25;14.40;99.90
43015;DHT22;28637;50.554;7.032;2022-10-16T05:28:27;14.30;99.90
43015;DHT22;28637;50.554;7.032;2022-10-16T05:33:28;14.40;99.90
43015;DHT22;28637;50.554;7.032;2022-10-16T05:38:29;14.40;99.90
43015;DHT22;28637;50.554;7.032;2022-10-16T05:43:30;14.50;99.90
43015;DHT22;28637;50.554;7.032;2022-10-16T05:48:32;14.50;99.90
43015;DHT22;28637;50.554;7.032;2022-10-16T05:53:35;14.50;99.90
43015;DHT22;28637;50.554;7.032;2022-10-16T05:58:37;14.50;99.90
43015;DHT22;28637;50.554;7.032;2022-10-16T06:03:38;14.50;99.90
43015;DHT22;28637;50.554;7.032;2022-10-16T06:08:40;14.60;99.90
43015;DHT22;28637;50.554;7.032;2022-10-16T06:13:40;14.60;99.90
43015;DHT22;28637;50.554;7.032;2022-10-16T06:18:42;14.50;99.90
43015;DHT22;28637;50.554;7.032;2022-10-16T06:23:43;14.50;99.90
43015;DHT22;28637;50.554;7.032;2022-10-16T06:28:47;14.50;99.90
43015;DHT22;28637;50.554;7.032;2022-10-16T06:33:50;14.50;99.90
43015;DHT22;28637;50.554;7.032;2022-10-16T06:38:51;14.50;99.90
43015;DHT22;28637;50.554;7.032;2022-10-16T06:43:52;14.50;99.90
43015;DHT22;28637;50.554;7.032;2022-10-16T06:48:53;14.50;99.90
43015;DHT22;28637;50.554;7.032;2022-10-16T06:53:55;14.50;99.90
43015;DHT22;28637;50.554;7.032;2022-10-16T06:58:57;14.50;99.90
43015;DHT22;28637;50.554;7.032;2022-10-16T07:03:58;14.50;99.90
43015;DHT22;28637;50.554;7.032;2022-10-16T07:09:02;14.60;99.90
43015;DHT22;28637;50.554;7.032;2022-10-16T07:14:04;14.60;99.90
43015;DHT22;28637;50.554;7.032;2022-10-16T07:19:05;14.60;99.90
43015;DHT22;28637;50.554;7.032;2022-10-16T07:24:10;14.70;99.90
43015;DHT22;28637;50.554;7.032;2022-10-16T07:29:16;14.70;99.90
43015;DHT22;28637;50.554;7.032;2022-10-16T07:34:18;14.70;99.90
43015;DHT22;28637;50.554;7.032;2022-10-16T07:39:19;14.80;99.90
43015;DHT22;28637;50.554;7.032;2022-10-16T07:44:20;14.80;99.90
43015;DHT22;28637;50.554;7.032;2022-10-16T07:49:21;15.00;99.90
43015;DHT22;28637;50.554;7.032;2022-10-16T07:54:22;15.00;99.90
43015;DHT22;28637;50.554;7.032;2022-10-16T07:59:22;15.20;99.90
43015;DHT22;28637;50.554;7.032;2022-10-16T08:04:23;15.20;99.90
43015;DHT22;28637;50.554;7.032;2022-10-16T08:09:23;15.30;99.90
43015;DHT22;28637;50.554;7.032;2022-10-16T08:14:24;15.30;99.90
43015;DHT22;28637;50.554;7.032;2022-10-16T08:19:25;15.20;99.90
43015;DHT22;28637;50.554;7.032;2022-10-16T08:24:25;15.30;99.90
43015;DHT22;28637;50.554;7.032;2022-10-16T08:29:26;15.30;99.90
43015;DHT22;28637;50.554;7.032;2022-10-16T08:34:27;15.40;99.90
43015;DHT22;28637;50.554;7.032;2022-10-16T08:39:28;15.30;99.90
43015;DHT22;28637;50.554;7.032;2022-10-16T08:49:42;15.70;99.90
43015;DHT22;28637;50.554;7.032;2022-10-16T08:54:48;15.60;99.90
43015;DHT22;28637;50.554;7.032;2022-10-16T08:59:52;15.70;99.90
43015;DHT22;28637;50.554;7.032;2022-10-16T09:05:02;15.90;99.90
43015;DHT22;28637;50.554;7.032;2022-10-16T09:15:55;16.30;99.90
43015;DHT22;28637;50.554;7.032;2022-10-16T09:26:23;16.60;99.90
43015;DHT22;28637;50.554;7.032;2022-10-16T09:31:24;16.70;99.90
43015;DHT22;28637;50.554;7.032;2022-10-16T09:36:27;17.00;99.90
43015;DHT22;28637;50.554;7.032;2022-10-16T09:41:28;16.90;99.90
43015;DHT22;28637;50.554;7.032;2022-10-16T09:46:31;16.80;99.90
43015;DHT22;28637;50.554;7.032;2022-10-16T09:51:34;17.10;99.90
43015;DHT22;28637;50.554;7.032;2022-10-16T09:56:37;17.40;99.90
43015;DHT22;28637;50.554;7.032;2022-10-16T10:01:51;17.80;99.90
43015;DHT22;28637;50.554;7.032;2022-10-16T10:06:55;17.80;99.90
43015;DHT22;28637;50.554;7.032;2022-10-16T10:12:01;17.80;99.90
43015;DHT22;28637;50.554;7.032;2022-10-16T10:17:11;17.70;99.90
43015;DHT22;28637;50.554;7.032;2022-10-16T10:54:12;19.60;99.90
43015;DHT22;28637;50.554;7.032;2022-10-16T10:59:32;19.90;99.90
43015;DHT22;28637;50.554;7.032;2022-10-16T11:09:47;20.20;99.90
43015;DHT22;28637;50.554;7.032;2022-10-16T11:20:13;20.20;99.90
43015;DHT22;28637;50.554;7.032;2022-10-16T11:25:27;20.80;99.90
43015;DHT22;28637;50.554;7.032;2022-10-16T11:30:30;21.40;99.90
43015;DHT22;28637;50.554;7.032;2022-10-16T11:35:48;21.60;99.90
43015;DHT22;28637;50.554;7.032;2022-10-16T11:40:54;21.70;99.90
43015;DHT22;28637;50.554;7.032;2022-10-16T11:46:04;22.30;99.90
43015;DHT22;28637;50.554;7.032;2022-10-16T11:51:16;22.60;99.90
43015;DHT22;28637;50.554;7.032;2022-10-16T11:56:20;22.00;99.90
43015;DHT22;28637;50.554;7.032;2022-10-16T12:06:40;23.00;99.30
43015;DHT22;28637;50.554;7.032;2022-10-16T12:11:42;22.30;98.40
43015;DHT22;28637;50.554;7.032;2022-10-16T12:16:54;22.30;99.90
43015;DHT22;28637;50.554;7.032;2022-10-16T12:22:00;22.00;98.50
43015;DHT22;28637;50.554;7.032;2022-10-16T12:27:01;21.30;99.50
43015;DHT22;28637;50.554;7.032;2022-10-16T12:32:04;21.00;99.90
43015;DHT22;28637;50.554;7.032;2022-10-16T12:37:26;21.10;99.90
43015;DHT22;28637;50.554;7.032;2022-10-16T12:52:37;21.60;99.90
43015;DHT22;28637;50.554;7.032;2022-10-16T12:57:42;21.00;99.90
43015;DHT22;28637;50.554;7.032;2022-10-16T13:29:30;21.10;99.90
43015;DHT22;28637;50.554;7.032;2022-10-16T13:34:32;21.20;99.90
43015;DHT22;28637;50.554;7.032;2022-10-16T13:39:32;20.90;99.90
43015;DHT22;28637;50.554;7.032;2022-10-16T13:44:40;20.90;99.90
43015;DHT22;28637;50.554;7.032;2022-10-16T13:49:42;20.90;99.90
43015;DHT22;28637;50.554;7.032;2022-10-16T13:54:42;20.70;99.90
43015;DHT22;28637;50.554;7.032;2022-10-16T13:59:44;20.60;99.90
43015;DHT22;28637;50.554;7.032;2022-10-16T14:04:44;20.40;99.90
43015;DHT22;28637;50.554;7.032;2022-10-16T14:09:49;20.00;99.90
43015;DHT22;28637;50.554;7.032;2022-10-16T14:14:52;19.80;99.90
43015;DHT22;28637;50.554;7.032;2022-10-16T14:19:59;19.70;99.90
43015;DHT22;28637;50.554;7.032;2022-10-16T14:25:02;19.70;99.90
43015;DHT22;28637;50.554;7.032;2022-10-16T14:30:15;19.60;99.90
43015;DHT22;28637;50.554;7.032;2022-10-16T14:35:33;19.60;99.90
43015;DHT22;28637;50.554;7.032;2022-10-16T14:40:36;19.60;99.90
43015;DHT22;28637;50.554;7.032;2022-10-16T14:45:38;19.60;99.90
43015;DHT22;28637;50.554;7.032;2022-10-16T14:50:42;19.50;99.90
43015;DHT22;28637;50.554;7.032;2022-10-16T14:55:42;19.50;99.90
43015;DHT22;28637;50.554;7.032;2022-10-16T15:00:43;19.50;99.90
43015;DHT22;28637;50.554;7.032;2022-10-16T15:05:44;19.50;99.90
43015;DHT22;28637;50.554;7.032;2022-10-16T15:10:44;19.50;99.90
43015;DHT22;28637;50.554;7.032;2022-10-16T15:15:46;19.40;99.90
43015;DHT22;28637;50.554;7.032;2022-10-16T15:20:50;19.20;99.90
43015;DHT22;28637;50.554;7.032;2022-10-16T15:25:55;19.10;99.90
43015;DHT22;28637;50.554;7.032;2022-10-16T15:30:56;19.00;99.90
43015;DHT22;28637;50.554;7.032;2022-10-16T15:35:57;18.90;99.90
43015;DHT22;28637;50.554;7.032;2022-10-16T15:40:58;18.80;99.90
43015;DHT22;28637;50.554;7.032;2022-10-16T15:51:07;18.70;99.90
43015;DHT22;28637;50.554;7.032;2022-10-16T15:56:09;18.70;99.90
43015;DHT22;28637;50.554;7.032;2022-10-16T16:01:11;18.70;99.90
43015;DHT22;28637;50.554;7.032;2022-10-16T16:06:13;18.60;99.90
43015;DHT22;28637;50.554;7.032;2022-10-16T16:11:15;18.60;99.90
43015;DHT22;28637;50.554;7.032;2022-10-16T16:16:17;18.50;99.90
43015;DHT22;28637;50.554;7.032;2022-10-16T16:21:18;18.50;99.90
43015;DHT22;28637;50.554;7.032;2022-10-16T16:26:27;18.40;99.90
43015;DHT22;28637;50.554;7.032;2022-10-16T16:31:29;18.30;99.90
43015;DHT22;28637;50.554;7.032;2022-10-16T16:36:31;18.20;99.90
43015;DHT22;28637;50.554;7.032;2022-10-16T16:41:31;18.00;99.90
43015;DHT22;28637;50.554;7.032;2022-10-16T16:46:33;17.80;99.90
43015;DHT22;28637;50.554;7.032;2022-10-16T16:51:34;17.80;99.90
43015;DHT22;28637;50.554;7.032;2022-10-16T16:56:35;17.80;99.90
43015;DHT22;28637;50.554;7.032;2022-10-16T17:01:36;17.70;99.90
43015;DHT22;28637;50.554;7.032;2022-10-16T17:06:37;17.60;99.90
43015;DHT22;28637;50.554;7.032;2022-10-16T17:11:39;17.60;99.90
43015;DHT22;28637;50.554;7.032;2022-10-16T17:16:41;17.60;99.90
43015;DHT22;28637;50.554;7.032;2022-10-16T17:21:44;17.60;99.90
43015;DHT22;28637;50.554;7.032;2022-10-16T17:26:46;17.60;99.90
43015;DHT22;28637;50.554;7.032;2022-10-16T17:31:48;17.60;99.90
43015;DHT22;28637;50.554;7.032;2022-10-16T17:36:49;17.60;99.90
43015;DHT22;28637;50.554;7.032;2022-10-16T17:41:50;17.60;99.90
43015;DHT22;28637;50.554;7.032;2022-10-16T17:46:52;17.50;99.90
43015;DHT22;28637;50.554;7.032;2022-10-16T17:51:53;17.40;99.90
43015;DHT22;28637;50.554;7.032;2022-10-16T17:56:54;17.30;99.90
43015;DHT22;28637;50.554;7.032;2022-10-16T18:01:55;17.20;99.90
43015;DHT22;28637;50.554;7.032;2022-10-16T18:06:55;17.10;99.90
43015;DHT22;28637;50.554;7.032;2022-10-16T18:11:56;17.00;99.90
43015;DHT22;28637;50.554;7.032;2022-10-16T18:17:00;16.90;99.90
43015;DHT22;28637;50.554;7.032;2022-10-16T18:22:01;16.80;99.90
43015;DHT22;28637;50.554;7.032;2022-10-16T18:27:02;16.70;99.90
43015;DHT22;28637;50.554;7.032;2022-10-16T18:32:02;16.60;99.90
43015;DHT22;28637;50.554;7.032;2022-10-16T18:37:03;16.50;99.90
43015;DHT22;28637;50.554;7.032;2022-10-16T18:42:05;16.50;99.90
43015;DHT22;28637;50.554;7.032;2022-10-16T18:47:05;16.50;99.90
43015;DHT22;28637;50.554;7.032;2022-10-16T18:52:06;16.60;99.90
43015;DHT22;28637;50.554;7.032;2022-10-16T18:57:07;16.70;99.90
43015;DHT22;28637;50.554;7.032;2022-10-16T19:02:08;16.60;99.90
43015;DHT22;28637;50.554;7.032;2022-10-16T19:07:09;16.40;99.90
43015;DHT22;28637;50.554;7.032;2022-10-16T19:12:10;16.40;99.90
43015;DHT22;28637;50.554;7.032;2022-10-16T19:17:11;16.50;99.90
43015;DHT22;28637;50.554;7.032;2022-10-16T19:22:12;16.50;99.90
43015;DHT22;28637;50.554;7.032;2022-10-16T19:27:27;16.50;99.90
43015;DHT22;28637;50.554;7.032;2022-10-16T19:32:27;16.50;99.90
43015;DHT22;28637;50.554;7.032;2022-10-16T19:37:28;16.40;99.90
43015;DHT22;28637;50.554;7.032;2022-10-16T19:42:29;16.40;99.90
43015;DHT22;28637;50.554;7.032;2022-10-16T19:47:30;16.20;99.90
43015;DHT22;28637;50.554;7.032;2022-10-16T19:52:32;16.10;99.90
43015;DHT22;28637;50.554;7.032;2022-10-16T19:57:36;16.00;99.90
43015;DHT22;28637;50.554;7.032;2022-10-16T20:02:37;16.00;99.90
43015;DHT22;28637;50.554;7.032;2022-10-16T20:07:38;16.00;99.90
43015;DHT22;28637;50.554;7.032;2022-10-16T20:12:38;16.00;99.90
43015;DHT22;28637;50.554;7.032;2022-10-16T20:17:39;15.90;99.90
43015;DHT22;28637;50.554;7.032;2022-10-16T20:22:40;15.80;99.90
43015;DHT22;28637;50.554;7.032;2022-10-16T20:27:41;15.80;99.90
43015;DHT22;28637;50.554;7.032;2022-10-16T20:32:42;15.70;99.90
43015;DHT22;28637;50.554;7.032;2022-10-16T20:37:44;15.70;99.90
43015;DHT22;28637;50.554;7.032;2022-10-16T20:42:48;15.60;99.90
43015;DHT22;28637;50.554;7.032;2022-10-16T20:47:49;15.50;99.90
43015;DHT22;28637;50.554;7.032;2022-10-16T20:52:49;15.40;99.90
43015;DHT22;28637;50.554;7.032;2022-10-16T20:57:50;15.40;99.90
43015;DHT22;28637;50.554;7.032;2022-10-16T21:02:51;15.30;99.90
43015;DHT22;28637;50.554;7.032;2022-10-16T21:07:52;15.30;99.90
43015;DHT22;28637;50.554;7.032;2022-10-16T21:12:53;15.20;99.90
43015;DHT22;28637;50.554;7.032;2022-10-16T21:17:54;15.20;99.90
43015;DHT22;28637;50.554;7.032;2022-10-16T21:22:55;15.20;99.90
43015;DHT22;28637;50.554;7.032;2022-10-16T21:27:55;15.20;99.90
43015;DHT22;28637;50.554;7.032;2022-10-16T21:32:56;15.30;99.90
43015;DHT22;28637;50.554;7.032;2022-10-16T21:37:57;15.30;99.90
43015;DHT22;28637;50.554;7.032;2022-10-16T21:42:58;15.40;99.90
43015;DHT22;28637;50.554;7.032;2022-10-16T21:47:58;15.40;99.90
43015;DHT22;28637;50.554;7.032;2022-10-16T21:52:59;15.30;99.90
43015;DHT22;28637;50.554;7.032;2022-10-16T21:58:00;15.30;99.90
43015;DHT22;28637;50.554;7.032;2022-10-16T22:03:00;15.20;99.90
43015;DHT22;28637;50.554;7.032;2022-10-16T22:08:01;15.10;99.90
43015;DHT22;28637;50.554;7.032;2022-10-16T22:13:02;15.10;99.90
43015;DHT22;28637;50.554;7.032;2022-10-16T22:18:03;15.10;99.90
43015;DHT22;28637;50.554;7.032;2022-10-16T22:23:04;15.30;99.90
43015;DHT22;28637;50.554;7.032;2022-10-16T22:28:05;15.50;99.90
43015;DHT22;28637;50.554;7.032;2022-10-16T22:33:06;15.70;99.90
43015;DHT22;28637;50.554;7.032;2022-10-16T22:38:07;15.90;99.90
43015;DHT22;28637;50.554;7.032;2022-10-16T22:43:08;15.90;99.90
43015;DHT22;28637;50.554;7.032;2022-10-16T22:48:08;15.80;99.90
43015;DHT22;28637;50.554;7.032;2022-10-16T22:53:09;15.70;99.90
43015;DHT22;28637;50.554;7.032;2022-10-16T22:58:10;15.60;99.90
43015;DHT22;28637;50.554;7.032;2022-10-16T23:03:10;15.80;99.90
43015;DHT22;28637;50.554;7.032;2022-10-16T23:08:11;16.00;99.90
43015;DHT22;28637;50.554;7.032;2022-10-16T23:13:12;16.10;99.90
43015;DHT22;28637;50.554;7.032;2022-10-16T23:18:13;16.10;99.90
43015;DHT22;28637;50.554;7.032;2022-10-16T23:23:14;16.10;99.90
43015;DHT22;28637;50.554;7.032;2022-10-16T23:28:14;16.00;99.90
43015;DHT22;28637;50.554;7.032;2022-10-16T23:33:15;15.80;99.90
43015;DHT22;28637;50.554;7.032;2022-10-16T23:38:16;15.80;99.90
43015;DHT22;28637;50.554;7.032;2022-10-16T23:43:17;15.80;99.90
43015;DHT22;28637;50.554;7.032;2022-10-16T23:48:17;15.80;99.90
43015;DHT22;28637;50.554;7.032;2022-10-16T23:53:18;15.80;99.90
43015;DHT22;28637;50.554;7.032;2022-10-16T23:58:19;15.80;99.90
